Time;durP1;ratioP1;P1;durP2;ratioP2;P2;SDS_P1;SDS_P2;PMS_P1;PMS_P2;Temp;Humidity;BMP_temperature;BMP_pressure;BME280_temperature;BME280_humidity;BME280_pressure;Samples;Min_cycle;Max_cycle;Signal;HPM_P1;HPM_P2
2022/03/24 00:02:51;;;;;;;153.75;51.72;;;;;;;;;;6266480;28;20049;-55
2022/03/24 00:05:52;;;;;;;152.00;51.75;;;;;;;;;;6269336;28;20113;-65
2022/03/24 00:08:53;;;;;;;174.13;56.67;;;;;;;;;;6268576;28;20357;-66
2022/03/24 00:11:55;;;;;;;145.68;51.67;;;;;;;;;;6269758;28;20131;-60
2022/03/24 00:14:56;;;;;;;188.60;64.78;;;;;;;;;;6264711;28;20048;-55
2022/03/24 00:17:56;;;;;;;208.25;69.13;;;;;;;;;;6264723;28;20102;-66
2022/03/24 00:21:01;;;;;;;175.02;58.85;;;;;;;;;;6264125;28;20442;-54
2022/03/24 00:24:02;;;;;;;220.18;68.30;;;;;;;;;;6266247;28;20480;-62
2022/03/24 00:27:03;;;;;;;243.75;76.63;;;;;;;;;;6260604;28;20060;-62
2022/03/24 00:30:07;;;;;;;217.25;71.75;;;;;;;;;;6264286;28;20049;-60
2022/03/24 00:33:09;;;;;;;203.07;64.05;;;;;;;;;;6269791;28;20064;-63
2022/03/24 00:36:10;;;;;;;229.65;67.82;;;;;;;;;;6268081;28;20131;-66
2022/03/24 00:39:11;;;;;;;225.18;70.85;;;;;;;;;;6271267;28;20519;-65
2022/03/24 00:42:11;;;;;;;284.48;83.57;;;;;;;;;;6263476;28;20067;-64
2022/03/24 00:45:13;;;;;;;288.67;89.13;;;;;;;;;;6266770;28;20052;-56
2022/03/24 00:48:13;;;;;;;314.90;94.88;;;;;;;;;;6266690;28;20098;-57
2022/03/24 00:51:15;;;;;;;314.70;97.13;;;;;;;;;;6265398;28;20469;-63
2022/03/24 00:54:18;;;;;;;336.83;101.30;;;;;;;;;;6266384;28;20076;-58
2022/03/24 00:57:19;;;;;;;324.98;102.00;;;;;;;;;;6274211;28;20091;-65
2022/03/24 01:00:21;;;;;;;364.13;115.27;;;;;;;;;;6266914;28;20352;-65
2022/03/24 01:03:22;;;;;;;346.58;112.03;;;;;;;;;;6266440;28;20057;-56
2022/03/24 01:06:26;;;;;;;355.08;111.10;;;;;;;;;;6269971;28;20128;-58
2022/03/24 01:09:27;;;;;;;321.20;98.35;;;;;;;;;;6267675;28;20052;-57
2022/03/24 01:12:28;;;;;;;332.90;104.97;;;;;;;;;;6268052;28;20140;-55
2022/03/24 01:15:30;;;;;;;310.98;99.35;;;;;;;;;;6267226;28;20067;-64
2022/03/24 01:18:34;;;;;;;379.45;115.78;;;;;;;;;;6267270;28;20053;-56
2022/03/24 01:21:36;;;;;;;368.77;115.28;;;;;;;;;;6264821;28;20533;-62
2022/03/24 01:24:38;;;;;;;366.23;114.95;;;;;;;;;;6264511;28;20079;-55
2022/03/24 01:27:38;;;;;;;351.02;110.55;;;;;;;;;;6267228;28;20051;-60
2022/03/24 01:30:39;;;;;;;340.42;108.78;;;;;;;;;;6263548;28;20068;-65
2022/03/24 01:33:40;;;;;;;324.92;108.22;;;;;;;;;;6268634;28;20072;-64
2022/03/24 01:36:40;;;;;;;309.85;97.85;;;;;;;;;;6269001;28;20478;-55
2022/03/24 01:39:41;;;;;;;328.08;102.68;;;;;;;;;;6269767;28;20381;-59
2022/03/24 01:42:43;;;;;;;339.40;109.38;;;;;;;;;;6274553;28;20067;-55
2022/03/24 01:45:45;;;;;;;320.65;102.22;;;;;;;;;;6274770;28;20045;-59
2022/03/24 01:48:45;;;;;;;317.50;108.00;;;;;;;;;;6273409;28;20037;-65
2022/03/24 01:51:46;;;;;;;326.27;102.60;;;;;;;;;;6275390;28;20128;-62
2022/03/24 01:54:52;;;;;;;311.23;96.25;;;;;;;;;;6271741;28;20395;-54
2022/03/24 01:57:54;;;;;;;311.75;101.18;;;;;;;;;;6250441;28;20049;-65
2022/03/24 02:01:17;;;;;;;293.98;87.80;;;;;;;;;;6272733;28;20148;-65
2022/03/24 02:04:19;;;;;;;292.42;88.82;;;;;;;;;;6273606;28;20471;-59
2022/03/24 02:07:20;;;;;;;302.13;91.70;;;;;;;;;;6273931;28;20064;-60
2022/03/24 02:10:21;;;;;;;306.23;92.20;;;;;;;;;;6273448;28;20079;-60
2022/03/24 02:13:22;;;;;;;308.50;94.05;;;;;;;;;;6275642;28;20394;-61
2022/03/24 02:16:27;;;;;;;331.00;101.78;;;;;;;;;;6273163;28;20090;-63
2022/03/24 02:19:28;;;;;;;307.77;99.75;;;;;;;;;;6271023;28;20055;-64
2022/03/24 02:22:29;;;;;;;313.40;98.97;;;;;;;;;;6263457;28;20060;-65
2022/03/24 02:25:32;;;;;;;322.63;100.40;;;;;;;;;;6272691;28;20080;-56
2022/03/24 02:28:32;;;;;;;319.50;99.55;;;;;;;;;;6269613;28;20086;-58
2022/03/24 02:31:38;;;;;;;311.58;97.10;;;;;;;;;;6270817;28;20037;-64
2022/03/24 02:34:47;;;;;;;342.00;104.70;;;;;;;;;;6274062;28;20070;-58
2022/03/24 02:37:47;;;;;;;337.80;102.75;;;;;;;;;;6268910;28;20040;-58
2022/03/24 02:40:52;;;;;;;321.10;101.57;;;;;;;;;;6273375;28;20063;-54
2022/03/24 02:43:52;;;;;;;278.75;85.55;;;;;;;;;;6271113;28;20060;-62
2022/03/24 02:46:55;;;;;;;293.73;89.13;;;;;;;;;;6270282;28;20037;-63
2022/03/24 02:49:58;;;;;;;272.42;87.85;;;;;;;;;;6271290;28;20061;-65
2022/03/24 02:52:58;;;;;;;;;;;;;;;;;;6269392;28;20476;-57
2022/03/24 02:55:59;;;;;;;284.58;86.13;;;;;;;;;;6269951;28;19924;-66
2022/03/24 02:59:00;;;;;;;277.35;86.15;;;;;;;;;;6271845;28;20476;-53
2022/03/24 03:02:15;;;;;;;290.75;91.32;;;;;;;;;;6272213;28;20052;-68
2022/03/24 03:05:15;;;;;;;277.95;85.65;;;;;;;;;;6275304;28;20460;-58
2022/03/24 03:08:18;;;;;;;259.77;81.88;;;;;;;;;;6270189;28;20133;-55
2022/03/24 03:11:22;;;;;;;;;;;;;;;;;;6270718;28;20044;-55
2022/03/24 03:14:23;;;;;;;253.85;76.85;;;;;;;;;;6269620;28;20041;-55
2022/03/24 03:17:23;;;;;;;248.45;75.32;;;;;;;;;;6268429;28;20533;-55
2022/03/24 03:20:24;;;;;;;250.70;79.10;;;;;;;;;;6267013;28;20708;-57
2022/03/24 03:23:25;;;;;;;249.07;79.47;;;;;;;;;;6276269;28;20143;-65
2022/03/24 03:26:26;;;;;;;248.52;78.05;;;;;;;;;;6265444;28;20132;-59
2022/03/24 03:29:27;;;;;;;237.55;75.57;;;;;;;;;;6269781;28;20044;-55
2022/03/24 03:32:27;;;;;;;227.43;74.75;;;;;;;;;;6275844;28;20041;-62
2022/03/24 03:35:29;;;;;;;237.18;77.38;;;;;;;;;;6267772;28;20044;-56
2022/03/24 03:38:30;;;;;;;240.90;76.93;;;;;;;;;;6268316;28;20498;-56
2022/03/24 03:41:31;;;;;;;246.82;77.22;;;;;;;;;;6267584;28;20081;-55
2022/03/24 03:44:32;;;;;;;243.90;76.38;;;;;;;;;;6267208;28;20049;-62
2022/03/24 03:47:33;;;;;;;248.82;74.82;;;;;;;;;;6275103;28;20059;-64
2022/03/24 03:50:33;;;;;;;231.52;73.45;;;;;;;;;;6271857;28;20044;-56
2022/03/24 03:53:38;;;;;;;244.15;76.30;;;;;;;;;;6270057;28;20735;-57
2022/03/24 03:56:38;;;;;;;214.60;70.97;;;;;;;;;;6266500;28;20048;-55
2022/03/24 03:59:39;;;;;;;233.00;75.32;;;;;;;;;;6271373;28;20103;-52
2022/03/24 04:02:40;;;;;;;223.27;69.68;;;;;;;;;;6271805;28;20047;-63
2022/03/24 04:05:41;;;;;;;222.52;68.05;;;;;;;;;;6270175;28;20492;-60
2022/03/24 04:08:43;;;;;;;225.57;70.90;;;;;;;;;;6271511;28;20051;-54
2022/03/24 04:11:44;;;;;;;238.85;72.13;;;;;;;;;;6268259;28;20044;-58
2022/03/24 04:14:44;;;;;;;213.90;66.60;;;;;;;;;;6268889;28;20152;-55
2022/03/24 04:17:45;;;;;;;220.85;68.03;;;;;;;;;;6263693;28;20063;-64
2022/03/24 04:20:46;;;;;;;218.43;67.80;;;;;;;;;;6268752;28;20071;-63
2022/03/24 04:23:47;;;;;;;207.45;65.63;;;;;;;;;;6267694;28;20420;-61
2022/03/24 04:26:47;;;;;;;202.57;64.90;;;;;;;;;;6271102;28;20139;-55
2022/03/24 04:29:48;;;;;;;210.25;65.28;;;;;;;;;;6268634;28;20071;-53
2022/03/24 04:32:49;;;;;;;428.20;99.63;;;;;;;;;;6278356;28;20502;-59
2022/03/24 04:35:50;;;;;;;269.08;72.05;;;;;;;;;;6270054;28;20033;-64
2022/03/24 04:38:51;;;;;;;216.15;63.85;;;;;;;;;;6267900;28;20079;-58
2022/03/24 04:41:52;;;;;;;240.98;67.40;;;;;;;;;;6255402;28;20428;-59
2022/03/24 04:44:52;;;;;;;255.65;72.05;;;;;;;;;;6241839;28;20146;-57
2022/03/24 04:47:54;;;;;;;288.27;71.68;;;;;;;;;;6262668;28;20468;-55
2022/03/24 04:50:54;;;;;;;270.85;74.57;;;;;;;;;;6266076;28;20389;-55
2022/03/24 04:53:55;;;;;;;292.17;76.63;;;;;;;;;;6264001;28;20044;-58
2022/03/24 04:56:57;;;;;;;299.52;75.85;;;;;;;;;;6266703;28;20126;-56
2022/03/24 04:59:57;;;;;;;292.50;79.00;;;;;;;;;;6263304;28;20045;-63
2022/03/24 05:02:59;;;;;;;301.75;77.18;;;;;;;;;;6265535;28;20068;-61
2022/03/24 05:06:00;;;;;;;311.70;78.68;;;;;;;;;;6272172;28;20408;-54
2022/03/24 05:09:00;;;;;;;232.77;70.80;;;;;;;;;;6267448;28;20052;-54
2022/03/24 05:12:02;;;;;;;232.48;67.32;;;;;;;;;;6265452;28;20068;-60
2022/03/24 05:15:02;;;;;;;219.43;67.35;;;;;;;;;;6268190;28;20041;-64
2022/03/24 05:18:04;;;;;;;224.82;65.82;;;;;;;;;;6271809;28;20041;-59
2022/03/24 05:21:05;;;;;;;204.30;65.93;;;;;;;;;;6270822;28;20450;-59
2022/03/24 05:24:06;;;;;;;213.75;66.55;;;;;;;;;;6270415;28;20045;-63
2022/03/24 05:27:07;;;;;;;215.60;67.20;;;;;;;;;;6269422;28;20586;-61
2022/03/24 05:30:08;;;;;;;213.73;66.65;;;;;;;;;;6266002;28;20107;-54
2022/03/24 05:33:09;;;;;;;200.57;66.15;;;;;;;;;;6268558;28;20090;-57
2022/03/24 05:36:10;;;;;;;200.10;64.28;;;;;;;;;;6270150;28;20068;-59
2022/03/24 05:39:11;;;;;;;217.55;66.80;;;;;;;;;;6274167;28;20061;-59
2022/03/24 05:42:12;;;;;;;212.93;66.47;;;;;;;;;;6284417;28;22330;-53
2022/03/24 05:45:12;;;;;;;231.40;65.88;;;;;;;;;;6263899;28;20071;-57
2022/03/24 05:48:13;;;;;;;202.02;61.40;;;;;;;;;;6269580;28;20041;-59
2022/03/24 05:51:13;;;;;;;201.90;61.10;;;;;;;;;;6266969;28;20135;-57
2022/03/24 05:54:16;;;;;;;201.82;61.38;;;;;;;;;;6265889;28;20518;-56
2022/03/24 05:57:17;;;;;;;213.80;62.15;;;;;;;;;;6264577;28;20099;-57
2022/03/24 06:00:17;;;;;;;219.20;64.97;;;;;;;;;;6266472;28;20056;-58
2022/03/24 06:03:18;;;;;;;178.40;59.28;;;;;;;;;;6267189;28;20124;-64
2022/03/24 06:06:21;;;;;;;204.05;59.58;;;;;;;;;;6266870;28;20117;-63
2022/03/24 06:09:21;;;;;;;154.80;53.00;;;;;;;;;;6268495;28;20503;-62
2022/03/24 06:12:23;;;;;;;160.65;53.60;;;;;;;;;;6268940;28;20095;-66
2022/03/24 06:15:24;;;;;;;155.15;51.92;;;;;;;;;;6265398;28;20076;-60
2022/03/24 06:18:25;;;;;;;172.30;54.10;;;;;;;;;;6265271;28;20049;-66
2022/03/24 06:21:26;;;;;;;151.30;50.25;;;;;;;;;;6263238;28;20041;-67
2022/03/24 06:24:29;;;;;;;138.63;46.37;;;;;;;;;;6262576;28;20049;-61
2022/03/24 06:27:30;;;;;;;132.77;43.83;;;;;;;;;;6264218;28;20049;-66
2022/03/24 06:30:31;;;;;;;135.10;43.85;;;;;;;;;;6266060;28;20063;-64
2022/03/24 06:33:31;;;;;;;122.72;43.28;;;;;;;;;;6266386;28;20051;-67
2022/03/24 06:36:32;;;;;;;123.75;41.30;;;;;;;;;;6261581;28;20404;-66
2022/03/24 06:39:32;;;;;;;122.47;40.95;;;;;;;;;;6266540;28;20044;-67
2022/03/24 06:42:33;;;;;;;120.65;42.50;;;;;;;;;;6265794;28;20109;-67
2022/03/24 06:45:34;;;;;;;126.22;41.58;;;;;;;;;;6267197;28;20436;-64
2022/03/24 06:48:35;;;;;;;125.03;44.28;;;;;;;;;;6269947;28;20134;-67
2022/03/24 06:51:36;;;;;;;124.70;43.53;;;;;;;;;;6276373;28;20041;-63
2022/03/24 06:54:37;;;;;;;127.90;43.55;;;;;;;;;;6269856;28;20051;-61
2022/03/24 06:57:37;;;;;;;125.75;42.97;;;;;;;;;;6274244;28;20132;-67
2022/03/24 07:00:39;;;;;;;137.10;46.08;;;;;;;;;;6274252;28;20067;-66
2022/03/24 07:03:40;;;;;;;123.13;45.35;;;;;;;;;;6271111;28;20131;-67
2022/03/24 07:06:42;;;;;;;131.95;47.35;;;;;;;;;;6265979;28;20127;-57
2022/03/24 07:09:42;;;;;;;122.80;43.30;;;;;;;;;;6274663;28;20478;-66
2022/03/24 07:12:43;;;;;;;123.43;45.88;;;;;;;;;;6276437;28;20052;-66
2022/03/24 07:15:44;;;;;;;121.85;43.65;;;;;;;;;;6280188;28;20045;-62
2022/03/24 07:18:44;;;;;;;132.63;43.72;;;;;;;;;;6259251;28;20072;-66
2022/03/24 07:21:45;;;;;;;128.23;44.38;;;;;;;;;;6272821;28;20099;-67
2022/03/24 07:24:46;;;;;;;121.72;43.45;;;;;;;;;;6270049;28;20072;-67
2022/03/24 07:27:49;;;;;;;118.53;44.03;;;;;;;;;;6267810;28;20045;-65
2022/03/24 07:30:50;;;;;;;126.55;42.60;;;;;;;;;;6263360;28;20079;-63
2022/03/24 07:33:53;;;;;;;126.97;44.05;;;;;;;;;;6262144;28;20049;-66
2022/03/24 07:36:54;;;;;;;121.18;42.50;;;;;;;;;;6262164;28;20091;-65
2022/03/24 07:39:55;;;;;;;135.40;43.65;;;;;;;;;;6271933;28;20053;-66
2022/03/24 07:42:57;;;;;;;124.30;44.97;;;;;;;;;;6270827;28;20060;-67
2022/03/24 07:45:57;;;;;;;125.75;43.88;;;;;;;;;;6268972;28;20056;-65
2022/03/24 07:48:58;;;;;;;126.50;44.85;;;;;;;;;;6266389;28;20476;-65
2022/03/24 07:51:58;;;;;;;128.55;44.92;;;;;;;;;;6270168;28;20058;-68
2022/03/24 07:55:06;;;;;;;141.93;45.25;;;;;;;;;;6254267;28;20041;-69
2022/03/24 07:58:10;;;;;;;142.35;48.45;;;;;;;;;;6262369;28;20036;-67
2022/03/24 08:01:12;;;;;;;127.40;47.85;;;;;;;;;;6273469;28;20076;-67
2022/03/24 08:04:12;;;;;;;145.50;47.97;;;;;;;;;;6268632;28;20045;-66
2022/03/24 08:07:13;;;;;;;135.75;45.25;;;;;;;;;;6270224;28;20044;-67
2022/03/24 08:10:14;;;;;;;129.88;47.60;;;;;;;;;;6271678;28;20098;-67
2022/03/24 08:13:16;;;;;;;131.05;46.92;;;;;;;;;;6268714;28;20045;-66
2022/03/24 08:16:17;;;;;;;127.03;46.70;;;;;;;;;;6266140;28;20833;-66
2022/03/24 08:19:18;;;;;;;136.75;46.58;;;;;;;;;;6262814;28;20193;-67
2022/03/24 08:22:19;;;;;;;123.13;44.03;;;;;;;;;;6265478;28;20098;-67
2022/03/24 08:25:20;;;;;;;162.90;51.65;;;;;;;;;;6265545;28;20048;-66
2022/03/24 08:28:21;;;;;;;124.88;45.17;;;;;;;;;;6269124;28;20198;-62
2022/03/24 08:31:22;;;;;;;125.95;45.10;;;;;;;;;;6263940;28;20052;-66
2022/03/24 08:34:23;;;;;;;123.05;44.30;;;;;;;;;;6260170;28;20140;-67
2022/03/24 08:37:23;;;;;;;131.90;45.65;;;;;;;;;;6271319;28;20053;-67
2022/03/24 08:40:24;;;;;;;116.53;44.60;;;;;;;;;;6275279;28;20115;-66
2022/03/24 08:43:25;;;;;;;131.35;48.03;;;;;;;;;;6268179;28;20076;-68
2022/03/24 08:46:26;;;;;;;131.85;51.50;;;;;;;;;;6266978;28;20051;-67
2022/03/24 08:49:27;;;;;;;124.10;45.53;;;;;;;;;;6272676;28;20044;-68
2022/03/24 08:52:28;;;;;;;131.30;45.75;;;;;;;;;;6275520;28;21279;-65
2022/03/24 08:55:28;;;;;;;135.25;47.33;;;;;;;;;;6276917;28;20056;-66
2022/03/24 08:58:29;;;;;;;120.10;47.08;;;;;;;;;;6275644;28;20128;-67
2022/03/24 09:01:30;;;;;;;122.05;44.75;;;;;;;;;;6270252;28;20045;-67
2022/03/24 09:04:30;;;;;;;123.35;46.80;;;;;;;;;;6267588;28;20433;-61
2022/03/24 09:07:31;;;;;;;120.88;45.50;;;;;;;;;;6269482;28;20676;-59
2022/03/24 09:10:32;;;;;;;125.93;45.10;;;;;;;;;;6274173;28;20045;-59
2022/03/24 09:13:32;;;;;;;112.93;42.83;;;;;;;;;;6275816;28;20045;-69
2022/03/24 09:16:33;;;;;;;114.93;41.90;;;;;;;;;;6274256;28;20183;-68
2022/03/24 09:19:35;;;;;;;119.15;42.17;;;;;;;;;;6273272;28;20067;-67
2022/03/24 09:22:43;;;;;;;110.38;42.55;;;;;;;;;;6267723;28;20048;-69
2022/03/24 09:25:43;;;;;;;118.50;40.80;;;;;;;;;;6270156;28;20057;-65
2022/03/24 09:28:44;;;;;;;115.65;41.35;;;;;;;;;;6272184;28;20521;-63
2022/03/24 09:31:45;;;;;;;129.85;43.10;;;;;;;;;;6270903;28;20626;-67
2022/03/24 09:34:46;;;;;;;125.35;44.88;;;;;;;;;;6268048;28;20190;-68
2022/03/24 09:37:47;;;;;;;119.57;43.55;;;;;;;;;;6270319;28;20099;-68
2022/03/24 09:40:50;;;;;;;99.00;34.58;;;;;;;;;;6271357;28;20191;-65
2022/03/24 09:43:52;;;;;;;78.28;28.38;;;;;;;;;;6268556;28;20049;-68
2022/03/24 09:46:53;;;;;;;86.25;32.28;;;;;;;;;;6276341;28;20502;-68
2022/03/24 09:49:54;;;;;;;99.20;35.58;;;;;;;;;;6273910;28;20456;-65
2022/03/24 09:52:56;;;;;;;106.47;37.78;;;;;;;;;;6272927;28;20041;-69
2022/03/24 09:55:57;;;;;;;105.40;37.17;;;;;;;;;;6265945;28;20126;-68
2022/03/24 09:58:57;;;;;;;107.28;39.08;;;;;;;;;;6274272;28;20514;-67
2022/03/24 10:02:01;;;;;;;105.50;37.63;;;;;;;;;;6268550;28;20045;-67
2022/03/24 10:05:04;;;;;;;95.30;33.33;;;;;;;;;;6273349;28;20048;-64
2022/03/24 10:08:06;;;;;;;80.65;29.88;;;;;;;;;;6274442;28;20044;-67
2022/03/24 10:11:08;;;;;;;89.25;32.10;;;;;;;;;;6268737;28;20045;-67
2022/03/24 10:14:09;;;;;;;96.63;31.88;;;;;;;;;;6271888;28;20160;-68
2022/03/24 10:17:11;;;;;;;99.32;35.45;;;;;;;;;;6271960;28;20059;-67
2022/03/24 10:20:15;;;;;;;108.15;38.00;;;;;;;;;;6272430;28;20033;-68
2022/03/24 10:23:15;;;;;;;91.82;33.75;;;;;;;;;;6271194;28;20044;-66
2022/03/24 10:26:16;;;;;;;93.40;32.85;;;;;;;;;;6271873;28;20525;-65
2022/03/24 10:29:22;;;;;;;91.00;33.05;;;;;;;;;;6277211;28;20134;-64
2022/03/24 10:32:31;;;;;;;92.72;30.38;;;;;;;;;;6275009;28;20096;-66
2022/03/24 10:35:32;;;;;;;95.32;30.77;;;;;;;;;;6267048;28;20052;-65
2022/03/24 10:38:39;;;;;;;84.63;28.55;;;;;;;;;;6269616;28;20087;-67
2022/03/24 10:41:40;;;;;;;83.70;30.40;;;;;;;;;;6270214;28;20056;-65
2022/03/24 10:45:11;;;;;;;89.72;28.92;;;;;;;;;;6269303;28;20086;-68
2022/03/24 10:48:11;;;;;;;62.15;25.33;;;;;;;;;;6267106;28;20053;-64
2022/03/24 10:51:21;;;;;;;65.45;23.77;;;;;;;;;;6268192;28;20057;-67
2022/03/24 10:54:51;;;;;;;69.88;24.20;;;;;;;;;;6272644;28;20082;-67
2022/03/24 10:57:53;;;;;;;78.88;26.42;;;;;;;;;;6268835;28;20131;-68
2022/03/24 11:00:57;;;;;;;79.40;26.20;;;;;;;;;;6273661;28;20167;-66
2022/03/24 11:03:58;;;;;;;73.78;27.08;;;;;;;;;;6270418;28;20459;-66
2022/03/24 11:06:59;;;;;;;71.77;27.43;;;;;;;;;;6270770;28;20391;-69
2022/03/24 11:10:18;;;;;;;76.95;27.40;;;;;;;;;;6268624;28;20052;-67
2022/03/24 11:13:27;;;;;;;53.10;19.45;;;;;;;;;;6269742;28;20147;-65
2022/03/24 11:16:34;;;;;;;54.45;21.10;;;;;;;;;;6268728;28;20079;-68
2022/03/24 11:19:38;;;;;;;52.83;19.35;;;;;;;;;;6270903;28;20056;-62
2022/03/24 11:22:48;;;;;;;58.40;20.73;;;;;;;;;;6273482;28;20132;-64
2022/03/24 11:25:53;;;;;;;50.67;20.20;;;;;;;;;;6272154;28;20041;-63
2022/03/24 11:28:55;;;;;;;59.00;21.10;;;;;;;;;;6273335;28;20128;-60
2022/03/24 11:31:56;;;;;;;47.83;17.02;;;;;;;;;;6269706;28;20055;-63
2022/03/24 11:34:58;;;;;;;49.58;18.80;;;;;;;;;;6272141;28;20053;-64
2022/03/24 11:38:00;;;;;;;53.95;19.17;;;;;;;;;;6272415;28;20052;-64
2022/03/24 11:41:07;;;;;;;54.38;19.48;;;;;;;;;;6272621;28;20110;-67
2022/03/24 11:44:15;;;;;;;47.42;20.05;;;;;;;;;;6270915;28;20045;-65
2022/03/24 11:47:19;;;;;;;48.35;18.60;;;;;;;;;;6270946;28;20077;-66
2022/03/24 11:50:34;;;;;;;40.22;15.35;;;;;;;;;;6275383;28;20403;-64
2022/03/24 11:53:38;;;;;;;41.58;16.30;;;;;;;;;;6270144;28;20060;-68
2022/03/24 11:56:39;;;;;;;47.25;17.40;;;;;;;;;;6269616;28;20067;-63
2022/03/24 11:59:40;;;;;;;51.13;21.05;;;;;;;;;;6273949;28;20036;-67
2022/03/24 12:02:43;;;;;;;77.43;35.50;;;;;;;;;;6271777;28;20436;-68
2022/03/24 12:05:51;;;;;;;66.40;27.45;;;;;;;;;;6273990;28;20510;-67
2022/03/24 12:09:01;;;;;;;40.00;16.38;;;;;;;;;;6271685;28;20301;-66
2022/03/24 12:12:01;;;;;;;46.13;18.42;;;;;;;;;;6271762;28;20519;-65
2022/03/24 12:15:16;;;;;;;36.75;14.63;;;;;;;;;;6269890;28;20193;-65
2022/03/24 12:18:18;;;;;;;39.60;14.07;;;;;;;;;;6263094;28;20049;-68
2022/03/24 12:21:28;;;;;;;37.35;14.70;;;;;;;;;;6261505;28;20756;-68
2022/03/24 12:24:35;;;;;;;33.80;13.95;;;;;;;;;;6261226;28;20041;-69
2022/03/24 12:28:03;;;;;;;31.90;12.15;;;;;;;;;;6260332;28;20073;-68
2022/03/24 12:31:07;;;;;;;31.65;11.93;;;;;;;;;;6267803;28;20075;-59
2022/03/24 12:34:14;;;;;;;28.75;10.57;;;;;;;;;;6271097;28;20086;-64
2022/03/24 12:37:29;;;;;;;23.95;9.30;;;;;;;;;;6263910;28;20068;-68
2022/03/24 12:40:29;;;;;;;23.20;9.50;;;;;;;;;;6261553;28;20045;-67
2022/03/24 12:43:57;;;;;;;18.15;7.32;;;;;;;;;;6263676;28;20117;-68
2022/03/24 12:46:59;;;;;;;19.52;6.80;;;;;;;;;;6264409;28;20059;-68
2022/03/24 12:50:08;;;;;;;17.23;7.55;;;;;;;;;;6260221;28;20120;-68
2022/03/24 12:53:09;;;;;;;21.17;7.97;;;;;;;;;;6260037;28;20051;-67
2022/03/24 12:56:28;;;;;;;17.67;5.90;;;;;;;;;;6262556;28;20053;-60
2022/03/24 12:59:35;;;;;;;13.05;4.78;;;;;;;;;;6273318;28;20312;-61
2022/03/24 13:02:42;;;;;;;16.17;5.20;;;;;;;;;;6269167;28;20095;-65
2022/03/24 13:05:46;;;;;;;36.65;13.60;;;;;;;;;;6273050;28;20051;-59
2022/03/24 13:09:19;;;;;;;16.65;6.80;;;;;;;;;;6268762;28;20055;-60
2022/03/24 13:12:27;;;;;;;19.17;7.22;;;;;;;;;;6268674;28;20601;-60
2022/03/24 13:15:31;;;;;;;28.40;10.00;;;;;;;;;;6264154;28;20448;-61
2022/03/24 13:18:31;;;;;;;17.10;6.82;;;;;;;;;;6270062;28;20055;-58
2022/03/24 13:21:32;;;;;;;17.67;6.85;;;;;;;;;;6268551;28;20050;-60
2022/03/24 13:24:33;;;;;;;18.58;5.32;;;;;;;;;;6272333;28;20176;-61
2022/03/24 13:27:39;;;;;;;15.13;6.30;;;;;;;;;;6269532;28;20040;-63
2022/03/24 13:30:40;;;;;;;23.77;10.18;;;;;;;;;;6268608;28;20056;-62
2022/03/24 13:33:51;;;;;;;27.20;8.93;;;;;;;;;;6270282;28;20632;-60
2022/03/24 13:36:51;;;;;;;27.77;8.00;;;;;;;;;;6273336;28;20392;-68
2022/03/24 13:39:55;;;;;;;25.27;9.52;;;;;;;;;;6274977;28;20127;-67
2022/03/24 13:42:56;;;;;;;33.80;10.45;;;;;;;;;;6271233;28;20060;-59
2022/03/24 13:45:57;;;;;;;19.73;8.23;;;;;;;;;;6272570;28;20084;-63
2022/03/24 13:48:58;;;;;;;23.33;8.90;;;;;;;;;;6271442;28;20136;-68
2022/03/24 13:51:58;;;;;;;26.80;9.63;;;;;;;;;;6275136;28;20091;-62
2022/03/24 13:55:12;;;;;;;23.60;8.63;;;;;;;;;;6270713;28;20051;-61
2022/03/24 13:58:14;;;;;;;19.50;8.88;;;;;;;;;;6270297;28;20072;-65
2022/03/24 14:01:16;;;;;;;21.48;8.80;;;;;;;;;;6268711;28;20045;-68
2022/03/24 14:04:17;;;;;;;22.02;9.38;;;;;;;;;;6274080;28;20041;-64
2022/03/24 14:07:18;;;;;;;20.80;9.68;;;;;;;;;;6268167;28;20056;-62
2022/03/24 14:10:19;;;;;;;28.58;9.05;;;;;;;;;;6268574;28;20403;-66
2022/03/24 14:13:24;;;;;;;20.65;7.50;;;;;;;;;;6269425;28;20482;-68
2022/03/24 14:16:39;;;;;;;21.75;7.22;;;;;;;;;;6267659;28;20041;-68
2022/03/24 14:19:53;;;;;;;31.85;18.67;;;;;;;;;;6268946;28;20060;-68
2022/03/24 14:22:53;;;;;;;20.05;6.45;;;;;;;;;;6271588;28;20068;-65
2022/03/24 14:25:58;;;;;;;17.17;6.57;;;;;;;;;;6274046;28;20419;-63
2022/03/24 14:29:00;;;;;;;18.67;6.38;;;;;;;;;;6270736;28;20069;-68
2022/03/24 14:32:22;;;;;;;16.90;6.83;;;;;;;;;;6274402;28;20045;-59
2022/03/24 14:35:27;;;;;;;17.55;6.32;;;;;;;;;;6273804;28;20480;-59
2022/03/24 14:38:28;;;;;;;20.27;6.60;;;;;;;;;;6273845;28;20047;-69
2022/03/24 14:41:29;;;;;;;22.63;8.85;;;;;;;;;;6275616;28;20061;-62
2022/03/24 14:44:29;;;;;;;20.27;6.43;;;;;;;;;;6275423;28;20139;-65
2022/03/24 14:47:32;;;;;;;16.42;6.60;;;;;;;;;;6271981;28;20419;-61
2022/03/24 14:50:34;;;;;;;16.30;5.88;;;;;;;;;;6266271;28;20472;-59
2022/03/24 14:53:34;;;;;;;15.05;6.35;;;;;;;;;;6272910;28;20068;-67
2022/03/24 14:56:36;;;;;;;17.88;7.40;;;;;;;;;;6269627;28;20508;-67
2022/03/24 14:59:36;;;;;;;16.13;5.72;;;;;;;;;;6267824;28;20096;-68
2022/03/24 15:02:38;;;;;;;18.00;6.57;;;;;;;;;;6270719;28;20056;-66
2022/03/24 15:05:39;;;;;;;14.32;5.40;;;;;;;;;;6272683;28;20049;-69
2022/03/24 15:08:40;;;;;;;20.02;7.13;;;;;;;;;;6271156;28;20049;-69
2022/03/24 15:11:41;;;;;;;23.02;8.88;;;;;;;;;;6274261;28;20554;-69
2022/03/24 15:18:01;;;;;;;9.77;4.57;;;;;;;;;;6272690;28;20775;-67
2022/03/24 15:21:04;;;;;;;20.95;6.35;;;;;;;;;;6270492;28;20053;-63
2022/03/24 15:24:05;;;;;;;15.35;5.50;;;;;;;;;;6267593;28;20083;-67
2022/03/24 15:27:06;;;;;;;21.50;7.47;;;;;;;;;;6276076;28;20056;-68
2022/03/24 15:30:08;;;;;;;17.45;5.95;;;;;;;;;;6264578;28;20157;-66
2022/03/24 15:33:13;;;;;;;17.27;7.47;;;;;;;;;;6269363;28;20048;-68
2022/03/24 15:36:14;;;;;;;15.82;6.53;;;;;;;;;;6268862;28;20068;-69
2022/03/24 15:39:15;;;;;;;16.55;6.57;;;;;;;;;;6274452;28;20094;-70
2022/03/24 15:42:17;;;;;;;18.05;5.57;;;;;;;;;;6271489;28;20048;-67
2022/03/24 15:45:18;;;;;;;17.65;6.22;;;;;;;;;;6267149;28;20045;-62
2022/03/24 15:48:19;;;;;;;14.13;5.32;;;;;;;;;;6269930;28;20061;-68
2022/03/24 15:51:20;;;;;;;13.52;5.18;;;;;;;;;;6247579;28;20056;-58
2022/03/24 15:54:21;;;;;;;17.35;5.85;;;;;;;;;;6256895;28;20746;-57
2022/03/24 15:57:22;;;;;;;20.92;7.25;;;;;;;;;;6254778;28;20542;-60
2022/03/24 16:00:23;;;;;;;36.57;9.70;;;;;;;;;;6248383;28;20119;-61
2022/03/24 16:03:24;;;;;;;19.40;7.40;;;;;;;;;;6250064;28;20476;-61
2022/03/24 16:06:26;;;;;;;32.40;8.45;;;;;;;;;;6253166;28;20045;-62
2022/03/24 16:09:26;;;;;;;20.17;7.93;;;;;;;;;;6252769;28;20052;-61
2022/03/24 16:12:27;;;;;;;34.22;10.77;;;;;;;;;;6253517;28;20053;-61
2022/03/24 16:15:28;;;;;;;19.88;7.55;;;;;;;;;;6255227;28;20049;-61
2022/03/24 16:18:29;;;;;;;24.88;8.82;;;;;;;;;;6255286;28;20057;-63
2022/03/24 16:21:30;;;;;;;28.92;8.10;;;;;;;;;;6249332;28;20048;-61
2022/03/24 16:24:30;;;;;;;17.13;7.60;;;;;;;;;;6254495;28;20103;-60
2022/03/24 16:27:32;;;;;;;26.50;8.40;;;;;;;;;;6254450;28;20715;-62
2022/03/24 16:30:33;;;;;;;;;;;;;;;;;;6249865;28;20222;-57
2022/03/24 16:33:34;;;;;;;20.52;7.45;;;;;;;;;;6254024;28;19970;-68
2022/03/24 16:36:35;;;;;;;20.70;6.93;;;;;;;;;;6254649;28;20095;-70
2022/03/24 16:39:35;;;;;;;32.17;9.00;;;;;;;;;;6249887;28;20049;-62
2022/03/24 16:42:36;;;;;;;20.38;6.80;;;;;;;;;;6251893;28;20119;-57
2022/03/24 16:45:37;;;;;;;21.83;7.72;;;;;;;;;;6255025;28;20072;-65
2022/03/24 16:48:38;;;;;;;22.25;7.88;;;;;;;;;;6254998;28;20049;-64
2022/03/24 16:51:38;;;;;;;24.38;8.32;;;;;;;;;;6252851;28;20053;-57
2022/03/24 16:54:39;;;;;;;28.92;9.45;;;;;;;;;;6252844;28;20056;-58
2022/03/24 16:57:40;;;;;;;22.88;9.40;;;;;;;;;;6257868;28;20052;-57
2022/03/24 17:00:41;;;;;;;45.47;9.73;;;;;;;;;;6251687;28;20120;-60
2022/03/24 17:03:41;;;;;;;37.78;12.75;;;;;;;;;;6255184;28;20051;-59
2022/03/24 17:06:42;;;;;;;40.55;13.27;;;;;;;;;;6254938;28;20908;-61
2022/03/24 17:09:42;;;;;;;30.45;11.35;;;;;;;;;;6255760;28;20130;-59
2022/03/24 17:12:43;;;;;;;28.38;10.30;;;;;;;;;;6259822;28;20055;-63
2022/03/24 17:15:44;;;;;;;31.33;11.85;;;;;;;;;;6257377;28;20567;-59
2022/03/24 17:18:44;;;;;;;34.63;11.98;;;;;;;;;;6255854;28;20091;-61
2022/03/24 17:21:45;;;;;;;32.88;13.02;;;;;;;;;;6255531;28;20481;-59
2022/03/24 17:24:45;;;;;;;44.97;14.85;;;;;;;;;;6260832;28;20542;-59
2022/03/24 17:27:48;;;;;;;50.28;22.20;;;;;;;;;;6261749;28;20438;-57
2022/03/24 17:30:49;;;;;;;44.42;15.05;;;;;;;;;;6256168;28;20195;-59
2022/03/24 17:33:50;;;;;;;44.78;15.77;;;;;;;;;;6266735;28;20061;-56
2022/03/24 17:36:51;;;;;;;43.75;15.82;;;;;;;;;;6261618;28;20056;-61
2022/03/24 17:39:52;;;;;;;44.35;16.52;;;;;;;;;;6264140;28;20175;-58
2022/03/24 17:42:57;;;;;;;77.70;23.33;;;;;;;;;;6262682;28;20090;-58